sensor_id;sensor_type;location;lat;lon;timestamp;temperature;humidity
50907;DHT22;36882;27.680;85.304;2023-12-20T00:00:44;7.60;99.90
50907;DHT22;36882;27.680;85.304;2023-12-20T00:03:14;7.60;99.90
50907;DHT22;36882;27.680;85.304;2023-12-20T00:05:47;7.50;99.90
50907;DHT22;36882;27.680;85.304;2023-12-20T00:08:17;7.60;99.90
50907;DHT22;36882;27.680;85.304;2023-12-20T00:10:48;7.60;99.90
50907;DHT22;36882;27.680;85.304;2023-12-20T00:13:18;7.50;99.90
50907;DHT22;36882;27.680;85.304;2023-12-20T00:15:49;7.60;99.90
50907;DHT22;36882;27.680;85.304;2023-12-20T00:18:19;7.50;99.90
50907;DHT22;36882;27.680;85.304;2023-12-20T00:20:50;7.50;99.90
50907;DHT22;36882;27.680;85.304;2023-12-20T00:23:20;7.50;99.90
50907;DHT22;36882;27.680;85.304;2023-12-20T00:25:52;7.40;99.90
50907;DHT22;36882;27.680;85.304;2023-12-20T00:28:23;7.50;99.90
50907;DHT22;36882;27.680;85.304;2023-12-20T00:30:54;7.40;99.90
50907;DHT22;36882;27.680;85.304;2023-12-20T00:33:24;7.30;99.90
50907;DHT22;36882;27.680;85.304;2023-12-20T00:35:55;7.30;99.90
50907;DHT22;36882;27.680;85.304;2023-12-20T00:38:25;7.40;99.90
50907;DHT22;36882;27.680;85.304;2023-12-20T00:40:56;7.50;99.90
50907;DHT22;36882;27.680;85.304;2023-12-20T00:43:26;7.40;99.90
50907;DHT22;36882;27.680;85.304;2023-12-20T00:45:58;7.50;99.90
50907;DHT22;36882;27.680;85.304;2023-12-20T00:48:32;7.40;99.90
50907;DHT22;36882;27.680;85.304;2023-12-20T00:51:02;7.40;99.90
50907;DHT22;36882;27.680;85.304;2023-12-20T00:53:32;7.40;99.90
50907;DHT22;36882;27.680;85.304;2023-12-20T00:56:03;7.40;99.90
50907;DHT22;36882;27.680;85.304;2023-12-20T00:58:34;7.40;99.90
50907;DHT22;36882;27.680;85.304;2023-12-20T01:01:04;7.40;99.90
50907;DHT22;36882;27.680;85.304;2023-12-20T01:03:35;7.40;99.90
50907;DHT22;36882;27.680;85.304;2023-12-20T01:06:06;7.40;99.90
50907;DHT22;36882;27.680;85.304;2023-12-20T01:08:37;7.40;99.90
50907;DHT22;36882;27.680;85.304;2023-12-20T01:11:08;7.40;99.90
50907;DHT22;36882;27.680;85.304;2023-12-20T01:13:38;7.40;99.90
50907;DHT22;36882;27.680;85.304;2023-12-20T01:16:12;7.40;99.90
50907;DHT22;36882;27.680;85.304;2023-12-20T01:18:42;7.40;99.90
50907;DHT22;36882;27.680;85.304;2023-12-20T01:21:13;7.50;99.90
50907;DHT22;36882;27.680;85.304;2023-12-20T01:23:44;7.50;99.90
50907;DHT22;36882;27.680;85.304;2023-12-20T01:26:15;7.50;99.90
50907;DHT22;36882;27.680;85.304;2023-12-20T01:28:46;7.40;99.90
50907;DHT22;36882;27.680;85.304;2023-12-20T01:31:16;7.50;99.90
50907;DHT22;36882;27.680;85.304;2023-12-20T01:33:47;7.60;99.90
50907;DHT22;36882;27.680;85.304;2023-12-20T01:36:17;7.60;99.90
50907;DHT22;36882;27.680;85.304;2023-12-20T01:38:49;7.80;99.90
50907;DHT22;36882;27.680;85.304;2023-12-20T01:41:19;7.90;99.90
50907;DHT22;36882;27.680;85.304;2023-12-20T01:43:51;7.70;99.90
50907;DHT22;36882;27.680;85.304;2023-12-20T01:46:22;7.80;99.90
50907;DHT22;36882;27.680;85.304;2023-12-20T01:48:53;7.80;99.90
50907;DHT22;36882;27.680;85.304;2023-12-20T01:51:24;7.80;99.90
50907;DHT22;36882;27.680;85.304;2023-12-20T01:53:58;7.90;99.90
50907;DHT22;36882;27.680;85.304;2023-12-20T01:56:29;8.00;99.90
50907;DHT22;36882;27.680;85.304;2023-12-20T01:59:03;8.10;99.90
50907;DHT22;36882;27.680;85.304;2023-12-20T02:01:34;8.10;99.90
50907;DHT22;36882;27.680;85.304;2023-12-20T02:04:06;8.20;99.90
50907;DHT22;36882;27.680;85.304;2023-12-20T02:06:38;8.10;99.90
50907;DHT22;36882;27.680;85.304;2023-12-20T02:09:10;8.30;99.90
50907;DHT22;36882;27.680;85.304;2023-12-20T02:11:41;8.50;99.90
50907;DHT22;36882;27.680;85.304;2023-12-20T02:14:12;8.40;99.90
50907;DHT22;36882;27.680;85.304;2023-12-20T02:16:43;8.40;99.90
50907;DHT22;36882;27.680;85.304;2023-12-20T02:19:13;8.50;99.90
50907;DHT22;36882;27.680;85.304;2023-12-20T02:21:44;8.60;99.90
50907;DHT22;36882;27.680;85.304;2023-12-20T02:24:15;8.70;99.90
50907;DHT22;36882;27.680;85.304;2023-12-20T02:26:47;8.70;99.90
50907;DHT22;36882;27.680;85.304;2023-12-20T02:29:18;8.70;99.90
50907;DHT22;36882;27.680;85.304;2023-12-20T02:31:48;8.70;99.90
50907;DHT22;36882;27.680;85.304;2023-12-20T02:34:19;8.80;99.90
50907;DHT22;36882;27.680;85.304;2023-12-20T02:36:49;8.90;99.90
50907;DHT22;36882;27.680;85.304;2023-12-20T02:39:20;9.10;99.90
50907;DHT22;36882;27.680;85.304;2023-12-20T02:41:51;9.20;99.90
50907;DHT22;36882;27.680;85.304;2023-12-20T02:44:22;9.20;99.90
50907;DHT22;36882;27.680;85.304;2023-12-20T02:46:52;9.30;99.90
50907;DHT22;36882;27.680;85.304;2023-12-20T02:49:22;9.40;99.90
50907;DHT22;36882;27.680;85.304;2023-12-20T02:51:53;9.50;99.90
50907;DHT22;36882;27.680;85.304;2023-12-20T02:54:23;9.30;99.90
50907;DHT22;36882;27.680;85.304;2023-12-20T02:56:54;9.50;99.90
50907;DHT22;36882;27.680;85.304;2023-12-20T02:59:24;9.40;99.90
50907;DHT22;36882;27.680;85.304;2023-12-20T03:01:55;9.50;99.90
50907;DHT22;36882;27.680;85.304;2023-12-20T03:04:25;9.50;99.90
50907;DHT22;36882;27.680;85.304;2023-12-20T03:06:56;9.60;99.90
50907;DHT22;36882;27.680;85.304;2023-12-20T03:09:26;9.70;99.90
50907;DHT22;36882;27.680;85.304;2023-12-20T03:12:05;10.00;99.90
50907;DHT22;36882;27.680;85.304;2023-12-20T03:14:35;10.00;99.90
50907;DHT22;36882;27.680;85.304;2023-12-20T03:17:06;10.10;99.90
50907;DHT22;36882;27.680;85.304;2023-12-20T03:19:36;10.10;99.90
50907;DHT22;36882;27.680;85.304;2023-12-20T03:22:07;10.10;99.90
50907;DHT22;36882;27.680;85.304;2023-12-20T03:24:38;10.10;99.90
50907;DHT22;36882;27.680;85.304;2023-12-20T03:27:08;10.20;99.90
50907;DHT22;36882;27.680;85.304;2023-12-20T03:29:38;10.30;99.90
50907;DHT22;36882;27.680;85.304;2023-12-20T03:32:08;10.40;99.90
50907;DHT22;36882;27.680;85.304;2023-12-20T03:34:39;10.60;99.90
50907;DHT22;36882;27.680;85.304;2023-12-20T03:37:10;10.60;99.90
50907;DHT22;36882;27.680;85.304;2023-12-20T03:39:40;10.70;99.90
50907;DHT22;36882;27.680;85.304;2023-12-20T03:42:11;10.60;99.90
50907;DHT22;36882;27.680;85.304;2023-12-20T03:44:42;10.70;99.90
50907;DHT22;36882;27.680;85.304;2023-12-20T03:47:13;10.70;99.90
50907;DHT22;36882;27.680;85.304;2023-12-20T03:49:43;10.90;99.90
50907;DHT22;36882;27.680;85.304;2023-12-20T03:52:13;11.10;99.90
50907;DHT22;36882;27.680;85.304;2023-12-20T03:54:44;11.30;99.90
50907;DHT22;36882;27.680;85.304;2023-12-20T03:57:14;11.50;99.50
50907;DHT22;36882;27.680;85.304;2023-12-20T03:59:46;11.40;99.60
50907;DHT22;36882;27.680;85.304;2023-12-20T04:02:18;11.30;99.60
50907;DHT22;36882;27.680;85.304;2023-12-20T04:04:49;11.40;99.50
50907;DHT22;36882;27.680;85.304;2023-12-20T04:07:20;11.50;99.20
50907;DHT22;36882;27.680;85.304;2023-12-20T04:09:50;11.50;99.10
50907;DHT22;36882;27.680;85.304;2023-12-20T04:12:20;11.40;99.00
50907;DHT22;36882;27.680;85.304;2023-12-20T04:14:51;11.50;98.70
50907;DHT22;36882;27.680;85.304;2023-12-20T04:17:22;11.40;98.60
50907;DHT22;36882;27.680;85.304;2023-12-20T04:19:52;11.30;99.10
50907;DHT22;36882;27.680;85.304;2023-12-20T04:22:23;11.40;99.10
50907;DHT22;36882;27.680;85.304;2023-12-20T04:24:54;11.40;98.60
50907;DHT22;36882;27.680;85.304;2023-12-20T04:27:24;11.60;98.80
50907;DHT22;36882;27.680;85.304;2023-12-20T04:29:55;11.70;98.30
50907;DHT22;36882;27.680;85.304;2023-12-20T04:32:28;11.70;98.50
50907;DHT22;36882;27.680;85.304;2023-12-20T04:35:05;11.70;98.60
50907;DHT22;36882;27.680;85.304;2023-12-20T04:37:37;11.90;98.40
50907;DHT22;36882;27.680;85.304;2023-12-20T04:40:08;11.90;98.00
50907;DHT22;36882;27.680;85.304;2023-12-20T04:42:41;11.90;98.00
50907;DHT22;36882;27.680;85.304;2023-12-20T04:45:12;11.90;98.20
50907;DHT22;36882;27.680;85.304;2023-12-20T04:47:46;11.80;97.80
50907;DHT22;36882;27.680;85.304;2023-12-20T04:50:16;11.70;98.00
50907;DHT22;36882;27.680;85.304;2023-12-20T04:52:47;11.90;97.90
50907;DHT22;36882;27.680;85.304;2023-12-20T04:55:18;12.00;97.10
50907;DHT22;36882;27.680;85.304;2023-12-20T04:57:49;12.10;96.70
50907;DHT22;36882;27.680;85.304;2023-12-20T05:00:20;12.10;96.70
50907;DHT22;36882;27.680;85.304;2023-12-20T05:02:51;12.20;96.80
50907;DHT22;36882;27.680;85.304;2023-12-20T05:05:22;12.20;97.00
50907;DHT22;36882;27.680;85.304;2023-12-20T05:07:53;12.40;97.00
50907;DHT22;36882;27.680;85.304;2023-12-20T05:10:23;12.40;96.80
50907;DHT22;36882;27.680;85.304;2023-12-20T05:12:54;12.50;96.70
50907;DHT22;36882;27.680;85.304;2023-12-20T05:15:24;12.70;96.70
50907;DHT22;36882;27.680;85.304;2023-12-20T05:17:54;12.80;96.60
50907;DHT22;36882;27.680;85.304;2023-12-20T05:20:25;12.90;95.70
50907;DHT22;36882;27.680;85.304;2023-12-20T05:22:56;13.00;96.00
50907;DHT22;36882;27.680;85.304;2023-12-20T05:25:27;13.10;95.50
50907;DHT22;36882;27.680;85.304;2023-12-20T05:27:57;13.10;95.90
50907;DHT22;36882;27.680;85.304;2023-12-20T05:30:28;13.20;95.60
50907;DHT22;36882;27.680;85.304;2023-12-20T05:32:58;13.30;95.30
50907;DHT22;36882;27.680;85.304;2023-12-20T05:35:28;13.30;95.20
50907;DHT22;36882;27.680;85.304;2023-12-20T05:37:58;13.30;95.70
50907;DHT22;36882;27.680;85.304;2023-12-20T05:40:29;13.60;95.40
50907;DHT22;36882;27.680;85.304;2023-12-20T05:42:59;13.70;94.40
50907;DHT22;36882;27.680;85.304;2023-12-20T05:45:29;13.70;94.30
50907;DHT22;36882;27.680;85.304;2023-12-20T05:48:00;13.70;94.60
50907;DHT22;36882;27.680;85.304;2023-12-20T05:50:30;13.80;94.50
50907;DHT22;36882;27.680;85.304;2023-12-20T05:53:00;13.90;93.80
50907;DHT22;36882;27.680;85.304;2023-12-20T05:55:31;13.90;93.80
50907;DHT22;36882;27.680;85.304;2023-12-20T05:58:01;14.20;93.30
50907;DHT22;36882;27.680;85.304;2023-12-20T06:00:31;14.30;93.50
50907;DHT22;36882;27.680;85.304;2023-12-20T06:03:01;14.40;93.00
50907;DHT22;36882;27.680;85.304;2023-12-20T06:05:32;14.30;93.00
50907;DHT22;36882;27.680;85.304;2023-12-20T06:08:02;14.30;92.80
50907;DHT22;36882;27.680;85.304;2023-12-20T06:10:32;14.40;92.70
50907;DHT22;36882;27.680;85.304;2023-12-20T06:13:03;14.60;92.10
50907;DHT22;36882;27.680;85.304;2023-12-20T06:15:37;14.50;92.70
50907;DHT22;36882;27.680;85.304;2023-12-20T06:18:07;14.70;92.80
50907;DHT22;36882;27.680;85.304;2023-12-20T06:20:37;14.70;92.30
50907;DHT22;36882;27.680;85.304;2023-12-20T06:23:07;14.80;91.40
50907;DHT22;36882;27.680;85.304;2023-12-20T06:25:38;14.80;90.90
50907;DHT22;36882;27.680;85.304;2023-12-20T06:28:08;14.80;91.30
50907;DHT22;36882;27.680;85.304;2023-12-20T06:30:40;14.90;91.50
50907;DHT22;36882;27.680;85.304;2023-12-20T06:33:10;14.80;91.30
50907;DHT22;36882;27.680;85.304;2023-12-20T06:35:41;14.70;91.00
50907;DHT22;36882;27.680;85.304;2023-12-20T06:38:12;14.80;91.60
50907;DHT22;36882;27.680;85.304;2023-12-20T06:40:42;14.80;91.40
50907;DHT22;36882;27.680;85.304;2023-12-20T06:43:14;15.20;90.60
50907;DHT22;36882;27.680;85.304;2023-12-20T06:46:04;15.10;88.70
50907;DHT22;36882;27.680;85.304;2023-12-20T06:48:35;15.10;88.30
50907;DHT22;36882;27.680;85.304;2023-12-20T06:51:06;15.30;89.80
50907;DHT22;36882;27.680;85.304;2023-12-20T06:53:39;15.30;90.20
50907;DHT22;36882;27.680;85.304;2023-12-20T06:56:15;15.30;90.40
50907;DHT22;36882;27.680;85.304;2023-12-20T06:58:47;15.50;89.60
50907;DHT22;36882;27.680;85.304;2023-12-20T07:01:17;15.40;88.40
50907;DHT22;36882;27.680;85.304;2023-12-20T07:03:48;15.30;87.00
50907;DHT22;36882;27.680;85.304;2023-12-20T07:06:19;15.30;89.20
50907;DHT22;36882;27.680;85.304;2023-12-20T07:08:53;15.50;89.20
50907;DHT22;36882;27.680;85.304;2023-12-20T07:11:25;15.50;87.10
50907;DHT22;36882;27.680;85.304;2023-12-20T07:13:56;15.60;86.50
50907;DHT22;36882;27.680;85.304;2023-12-20T07:16:28;15.60;85.50
50907;DHT22;36882;27.680;85.304;2023-12-20T07:18:59;15.80;84.60
50907;DHT22;36882;27.680;85.304;2023-12-20T07:21:30;15.90;82.40
50907;DHT22;36882;27.680;85.304;2023-12-20T07:24:01;15.90;84.00
50907;DHT22;36882;27.680;85.304;2023-12-20T07:26:31;15.80;84.30
50907;DHT22;36882;27.680;85.304;2023-12-20T07:29:02;16.10;81.90
50907;DHT22;36882;27.680;85.304;2023-12-20T07:31:33;16.20;83.50
50907;DHT22;36882;27.680;85.304;2023-12-20T07:34:05;16.30;82.60
50907;DHT22;36882;27.680;85.304;2023-12-20T07:36:37;16.20;83.00
50907;DHT22;36882;27.680;85.304;2023-12-20T07:39:08;16.10;83.00
50907;DHT22;36882;27.680;85.304;2023-12-20T07:41:38;16.30;81.30
50907;DHT22;36882;27.680;85.304;2023-12-20T07:44:11;16.40;80.80
50907;DHT22;36882;27.680;85.304;2023-12-20T07:46:41;16.30;81.20
50907;DHT22;36882;27.680;85.304;2023-12-20T07:49:13;16.50;81.20
50907;DHT22;36882;27.680;85.304;2023-12-20T07:51:45;16.70;79.90
50907;DHT22;36882;27.680;85.304;2023-12-20T07:54:17;16.70;79.70
50907;DHT22;36882;27.680;85.304;2023-12-20T07:56:51;16.70;78.20
50907;DHT22;36882;27.680;85.304;2023-12-20T07:59:22;16.40;80.00
50907;DHT22;36882;27.680;85.304;2023-12-20T08:01:59;16.20;81.50
50907;DHT22;36882;27.680;85.304;2023-12-20T08:04:31;16.20;81.50
50907;DHT22;36882;27.680;85.304;2023-12-20T08:07:02;16.20;80.50
50907;DHT22;36882;27.680;85.304;2023-12-20T08:09:33;16.40;80.20
50907;DHT22;36882;27.680;85.304;2023-12-20T08:12:07;16.50;80.00
50907;DHT22;36882;27.680;85.304;2023-12-20T08:14:39;16.30;81.10
50907;DHT22;36882;27.680;85.304;2023-12-20T08:17:10;16.30;81.10
50907;DHT22;36882;27.680;85.304;2023-12-20T08:19:42;16.40;80.40
50907;DHT22;36882;27.680;85.304;2023-12-20T08:22:13;16.40;81.70
50907;DHT22;36882;27.680;85.304;2023-12-20T08:24:44;16.40;80.40
50907;DHT22;36882;27.680;85.304;2023-12-20T08:27:15;16.30;79.80
50907;DHT22;36882;27.680;85.304;2023-12-20T08:29:45;16.20;80.60
50907;DHT22;36882;27.680;85.304;2023-12-20T08:32:16;16.40;79.60
50907;DHT22;36882;27.680;85.304;2023-12-20T08:34:47;16.50;79.60
50907;DHT22;36882;27.680;85.304;2023-12-20T08:37:23;16.50;79.40
50907;DHT22;36882;27.680;85.304;2023-12-20T08:39:54;16.50;79.90
50907;DHT22;36882;27.680;85.304;2023-12-20T08:42:24;16.60;79.90
50907;DHT22;36882;27.680;85.304;2023-12-20T08:45:01;16.60;80.40
50907;DHT22;36882;27.680;85.304;2023-12-20T08:47:37;16.60;80.30
50907;DHT22;36882;27.680;85.304;2023-12-20T08:50:15;16.70;80.00
50907;DHT22;36882;27.680;85.304;2023-12-20T08:52:57;16.80;78.60
50907;DHT22;36882;27.680;85.304;2023-12-20T08:55:31;16.70;79.60
50907;DHT22;36882;27.680;85.304;2023-12-20T08:58:04;16.70;80.20
50907;DHT22;36882;27.680;85.304;2023-12-20T09:00:37;16.60;80.50
50907;DHT22;36882;27.680;85.304;2023-12-20T09:03:08;16.60;80.90
50907;DHT22;36882;27.680;85.304;2023-12-20T09:05:39;16.80;79.90
50907;DHT22;36882;27.680;85.304;2023-12-20T09:08:11;16.70;80.60
50907;DHT22;36882;27.680;85.304;2023-12-20T09:10:43;16.70;80.40
50907;DHT22;36882;27.680;85.304;2023-12-20T09:13:14;16.70;80.20
50907;DHT22;36882;27.680;85.304;2023-12-20T09:15:45;16.60;80.60
50907;DHT22;36882;27.680;85.304;2023-12-20T09:18:16;16.50;81.30
50907;DHT22;36882;27.680;85.304;2023-12-20T09:20:47;16.40;81.10
50907;DHT22;36882;27.680;85.304;2023-12-20T09:23:20;16.40;79.80
50907;DHT22;36882;27.680;85.304;2023-12-20T09:25:52;16.50;80.60
50907;DHT22;36882;27.680;85.304;2023-12-20T09:28:26;16.50;79.90
50907;DHT22;36882;27.680;85.304;2023-12-20T09:30:58;16.50;80.50
50907;DHT22;36882;27.680;85.304;2023-12-20T09:33:29;16.40;80.50
50907;DHT22;36882;27.680;85.304;2023-12-20T09:36:01;16.40;80.80
50907;DHT22;36882;27.680;85.304;2023-12-20T09:38:32;16.30;81.50
50907;DHT22;36882;27.680;85.304;2023-12-20T09:41:03;16.30;82.10
50907;DHT22;36882;27.680;85.304;2023-12-20T09:43:37;16.40;80.20
50907;DHT22;36882;27.680;85.304;2023-12-20T09:46:10;16.20;81.60
50907;DHT22;36882;27.680;85.304;2023-12-20T09:48:43;16.10;83.40
50907;DHT22;36882;27.680;85.304;2023-12-20T09:51:15;16.20;84.80
50907;DHT22;36882;27.680;85.304;2023-12-20T09:53:48;16.40;87.30
50907;DHT22;36882;27.680;85.304;2023-12-20T09:56:20;16.20;88.60
50907;DHT22;36882;27.680;85.304;2023-12-20T09:58:52;16.30;89.60
50907;DHT22;36882;27.680;85.304;2023-12-20T10:01:25;16.30;90.60
50907;DHT22;36882;27.680;85.304;2023-12-20T10:04:01;16.30;90.90
50907;DHT22;36882;27.680;85.304;2023-12-20T10:06:52;16.10;91.00
50907;DHT22;36882;27.680;85.304;2023-12-20T10:09:24;16.00;91.00
50907;DHT22;36882;27.680;85.304;2023-12-20T10:11:55;16.00;90.80
50907;DHT22;36882;27.680;85.304;2023-12-20T10:14:27;15.90;90.90
50907;DHT22;36882;27.680;85.304;2023-12-20T10:17:07;15.90;91.10
50907;DHT22;36882;27.680;85.304;2023-12-20T10:19:37;15.90;91.20
50907;DHT22;36882;27.680;85.304;2023-12-20T10:22:08;15.80;91.60
50907;DHT22;36882;27.680;85.304;2023-12-20T10:24:40;15.70;91.80
50907;DHT22;36882;27.680;85.304;2023-12-20T10:27:11;15.60;91.90
50907;DHT22;36882;27.680;85.304;2023-12-20T10:29:42;15.60;92.20
50907;DHT22;36882;27.680;85.304;2023-12-20T10:32:22;15.50;92.60
50907;DHT22;36882;27.680;85.304;2023-12-20T10:34:54;15.40;92.70
50907;DHT22;36882;27.680;85.304;2023-12-20T10:37:26;15.40;93.00
50907;DHT22;36882;27.680;85.304;2023-12-20T10:39:57;15.30;92.90
50907;DHT22;36882;27.680;85.304;2023-12-20T10:42:30;15.30;93.10
50907;DHT22;36882;27.680;85.304;2023-12-20T10:45:01;15.30;92.50
50907;DHT22;36882;27.680;85.304;2023-12-20T10:47:33;15.30;91.70
50907;DHT22;36882;27.680;85.304;2023-12-20T10:50:08;15.30;91.70
50907;DHT22;36882;27.680;85.304;2023-12-20T10:52:43;15.10;91.60
50907;DHT22;36882;27.680;85.304;2023-12-20T10:55:15;15.00;92.10
50907;DHT22;36882;27.680;85.304;2023-12-20T10:58:08;14.90;92.20
50907;DHT22;36882;27.680;85.304;2023-12-20T11:00:44;14.80;92.30
50907;DHT22;36882;27.680;85.304;2023-12-20T11:03:18;14.80;92.30
50907;DHT22;36882;27.680;85.304;2023-12-20T11:08:39;14.60;92.80
50907;DHT22;36882;27.680;85.304;2023-12-20T11:11:39;14.60;92.70
50907;DHT22;36882;27.680;85.304;2023-12-20T11:14:23;14.50;92.90
50907;DHT22;36882;27.680;85.304;2023-12-20T11:17:08;14.50;92.70
50907;DHT22;36882;27.680;85.304;2023-12-20T11:22:31;14.40;92.20
50907;DHT22;36882;27.680;85.304;2023-12-20T11:25:10;14.30;92.90
50907;DHT22;36882;27.680;85.304;2023-12-20T11:27:43;14.20;93.00
50907;DHT22;36882;27.680;85.304;2023-12-20T11:30:17;14.20;93.00
50907;DHT22;36882;27.680;85.304;2023-12-20T11:32:47;14.10;93.50
50907;DHT22;36882;27.680;85.304;2023-12-20T11:35:18;14.00;93.20
50907;DHT22;36882;27.680;85.304;2023-12-20T11:37:51;13.90;93.40
50907;DHT22;36882;27.680;85.304;2023-12-20T11:40:23;13.90;93.40
50907;DHT22;36882;27.680;85.304;2023-12-20T11:42:55;13.90;93.30
50907;DHT22;36882;27.680;85.304;2023-12-20T11:45:25;13.80;93.50
50907;DHT22;36882;27.680;85.304;2023-12-20T11:47:58;13.80;93.40
50907;DHT22;36882;27.680;85.304;2023-12-20T11:50:29;13.80;93.50
50907;DHT22;36882;27.680;85.304;2023-12-20T11:53:00;13.60;93.80
50907;DHT22;36882;27.680;85.304;2023-12-20T11:55:31;13.60;94.00
50907;DHT22;36882;27.680;85.304;2023-12-20T11:58:02;13.60;93.90
50907;DHT22;36882;27.680;85.304;2023-12-20T12:00:33;13.60;94.20
50907;DHT22;36882;27.680;85.304;2023-12-20T12:03:02;13.50;94.30
50907;DHT22;36882;27.680;85.304;2023-12-20T12:05:33;13.40;94.20
50907;DHT22;36882;27.680;85.304;2023-12-20T12:08:04;13.40;94.50
50907;DHT22;36882;27.680;85.304;2023-12-20T12:10:36;13.30;94.70
50907;DHT22;36882;27.680;85.304;2023-12-20T12:13:07;13.30;94.50
50907;DHT22;36882;27.680;85.304;2023-12-20T12:15:37;13.30;93.80
50907;DHT22;36882;27.680;85.304;2023-12-20T12:18:09;13.30;94.40
50907;DHT22;36882;27.680;85.304;2023-12-20T12:20:40;13.30;94.40
50907;DHT22;36882;27.680;85.304;2023-12-20T12:23:10;13.20;94.40
50907;DHT22;36882;27.680;85.304;2023-12-20T12:25:40;13.20;94.60
50907;DHT22;36882;27.680;85.304;2023-12-20T12:28:12;13.10;94.30
50907;DHT22;36882;27.680;85.304;2023-12-20T12:30:43;13.20;94.40
50907;DHT22;36882;27.680;85.304;2023-12-20T12:33:26;13.20;94.60
50907;DHT22;36882;27.680;85.304;2023-12-20T12:35:57;13.10;94.40
50907;DHT22;36882;27.680;85.304;2023-12-20T12:38:28;13.10;94.40
50907;DHT22;36882;27.680;85.304;2023-12-20T12:41:00;13.00;94.50
50907;DHT22;36882;27.680;85.304;2023-12-20T12:43:32;12.90;94.80
50907;DHT22;36882;27.680;85.304;2023-12-20T12:46:46;13.00;94.80
50907;DHT22;36882;27.680;85.304;2023-12-20T12:49:17;13.00;95.30
50907;DHT22;36882;27.680;85.304;2023-12-20T12:51:48;12.90;95.40
50907;DHT22;36882;27.680;85.304;2023-12-20T12:54:20;12.90;95.50
50907;DHT22;36882;27.680;85.304;2023-12-20T12:56:54;12.80;97.00
50907;DHT22;36882;27.680;85.304;2023-12-20T12:59:25;12.80;96.10
50907;DHT22;36882;27.680;85.304;2023-12-20T13:01:56;12.70;96.40
50907;DHT22;36882;27.680;85.304;2023-12-20T13:04:26;12.70;96.20
50907;DHT22;36882;27.680;85.304;2023-12-20T13:06:56;12.70;95.90
50907;DHT22;36882;27.680;85.304;2023-12-20T13:09:27;12.70;96.10
50907;DHT22;36882;27.680;85.304;2023-12-20T13:11:58;12.70;95.70
50907;DHT22;36882;27.680;85.304;2023-12-20T13:14:29;12.70;95.40
50907;DHT22;36882;27.680;85.304;2023-12-20T13:17:00;12.70;95.20
50907;DHT22;36882;27.680;85.304;2023-12-20T13:19:31;12.70;95.30
50907;DHT22;36882;27.680;85.304;2023-12-20T13:22:02;12.70;95.00
50907;DHT22;36882;27.680;85.304;2023-12-20T13:24:36;12.70;95.30
50907;DHT22;36882;27.680;85.304;2023-12-20T13:27:07;12.70;95.50
50907;DHT22;36882;27.680;85.304;2023-12-20T13:29:38;12.70;95.60
50907;DHT22;36882;27.680;85.304;2023-12-20T13:32:08;12.70;95.50
50907;DHT22;36882;27.680;85.304;2023-12-20T13:34:38;12.70;95.60
50907;DHT22;36882;27.680;85.304;2023-12-20T13:37:09;12.60;95.60
50907;DHT22;36882;27.680;85.304;2023-12-20T13:39:40;12.50;95.90
50907;DHT22;36882;27.680;85.304;2023-12-20T13:42:10;12.40;96.10
50907;DHT22;36882;27.680;85.304;2023-12-20T13:44:41;12.50;96.20
50907;DHT22;36882;27.680;85.304;2023-12-20T13:47:11;12.50;96.30
50907;DHT22;36882;27.680;85.304;2023-12-20T13:49:42;12.40;96.50
50907;DHT22;36882;27.680;85.304;2023-12-20T13:52:15;12.40;96.60
50907;DHT22;36882;27.680;85.304;2023-12-20T13:54:46;12.50;97.10
50907;DHT22;36882;27.680;85.304;2023-12-20T13:57:17;12.40;98.10
50907;DHT22;36882;27.680;85.304;2023-12-20T14:00:08;12.30;98.70
50907;DHT22;36882;27.680;85.304;2023-12-20T14:02:44;12.30;99.10
50907;DHT22;36882;27.680;85.304;2023-12-20T14:05:16;12.30;99.20
50907;DHT22;36882;27.680;85.304;2023-12-20T14:07:55;12.20;98.80
50907;DHT22;36882;27.680;85.304;2023-12-20T14:10:29;12.20;99.30
50907;DHT22;36882;27.680;85.304;2023-12-20T15:09:34;11.30;99.90
50907;DHT22;36882;27.680;85.304;2023-12-20T15:12:05;11.10;98.90
50907;DHT22;36882;27.680;85.304;2023-12-20T15:14:35;11.10;99.00
50907;DHT22;36882;27.680;85.304;2023-12-20T15:17:06;11.10;98.90
50907;DHT22;36882;27.680;85.304;2023-12-20T15:19:36;11.00;99.20
50907;DHT22;36882;27.680;85.304;2023-12-20T15:22:06;11.10;99.00
50907;DHT22;36882;27.680;85.304;2023-12-20T15:24:37;11.00;99.00
50907;DHT22;36882;27.680;85.304;2023-12-20T15:27:10;11.00;98.90
50907;DHT22;36882;27.680;85.304;2023-12-20T15:29:40;10.90;99.20
50907;DHT22;36882;27.680;85.304;2023-12-20T15:32:10;10.90;99.40
50907;DHT22;36882;27.680;85.304;2023-12-20T15:34:41;11.10;99.20
50907;DHT22;36882;27.680;85.304;2023-12-20T15:37:11;10.90;99.30
50907;DHT22;36882;27.680;85.304;2023-12-20T15:39:45;10.80;99.40
50907;DHT22;36882;27.680;85.304;2023-12-20T15:42:16;10.80;99.60
50907;DHT22;36882;27.680;85.304;2023-12-20T15:44:46;10.70;99.60
50907;DHT22;36882;27.680;85.304;2023-12-20T15:47:16;10.80;99.30
50907;DHT22;36882;27.680;85.304;2023-12-20T15:49:47;10.80;99.30
50907;DHT22;36882;27.680;85.304;2023-12-20T15:52:19;10.70;99.40
50907;DHT22;36882;27.680;85.304;2023-12-20T15:54:49;10.80;99.30
50907;DHT22;36882;27.680;85.304;2023-12-20T15:57:20;10.70;99.30
50907;DHT22;36882;27.680;85.304;2023-12-20T16:11:06;10.40;99.70
50907;DHT22;36882;27.680;85.304;2023-12-20T16:13:37;10.30;99.90
50907;DHT22;36882;27.680;85.304;2023-12-20T16:16:10;10.40;99.90
50907;DHT22;36882;27.680;85.304;2023-12-20T16:18:41;10.40;99.90
50907;DHT22;36882;27.680;85.304;2023-12-20T16:21:12;10.30;99.90
50907;DHT22;36882;27.680;85.304;2023-12-20T16:23:42;10.40;99.70
50907;DHT22;36882;27.680;85.304;2023-12-20T16:26:14;10.20;99.90
50907;DHT22;36882;27.680;85.304;2023-12-20T16:28:44;10.30;99.90
50907;DHT22;36882;27.680;85.304;2023-12-20T16:31:16;10.30;99.90
50907;DHT22;36882;27.680;85.304;2023-12-20T16:33:47;10.30;99.90
50907;DHT22;36882;27.680;85.304;2023-12-20T16:36:33;10.20;99.90
50907;DHT22;36882;27.680;85.304;2023-12-20T16:39:23;10.10;99.90
50907;DHT22;36882;27.680;85.304;2023-12-20T16:41:53;10.20;99.90
50907;DHT22;36882;27.680;85.304;2023-12-20T16:44:24;10.20;99.90
50907;DHT22;36882;27.680;85.304;2023-12-20T16:46:55;10.00;99.90
50907;DHT22;36882;27.680;85.304;2023-12-20T16:49:26;10.00;99.90
50907;DHT22;36882;27.680;85.304;2023-12-20T16:51:57;10.00;99.90
50907;DHT22;36882;27.680;85.304;2023-12-20T16:54:31;9.90;99.90
50907;DHT22;36882;27.680;85.304;2023-12-20T16:57:02;10.00;99.90
50907;DHT22;36882;27.680;85.304;2023-12-20T16:59:32;10.00;99.90
50907;DHT22;36882;27.680;85.304;2023-12-20T17:02:05;10.00;99.90